Time;durP1;ratioP1;P1;durP2;ratioP2;P2;SDS_P1;SDS_P2;PMS_P1;PMS_P2;Temp;Humidity;BMP_temperature;BMP_pressure;BME280_temperature;BME280_humidity;BME280_pressure;Samples;Min_cycle;Max_cycle;Signal;HPM_P1;HPM_P2
2023/03/25 00:02:19;;;;;;;0.30;0.30;;;9.90;99.90;;;;;;6214714;23;20019;-77
2023/03/25 00:04:49;;;;;;;0.40;0.40;;;9.90;99.90;;;;;;6216176;23;20027;-77
2023/03/25 00:07:17;;;;;;;0.40;0.40;;;9.90;99.90;;;;;;6216477;23;20023;-76
2023/03/25 00:09:43;;;;;;;0.38;0.38;;;9.90;99.90;;;;;;6216094;23;20434;-76
2023/03/25 00:12:08;;;;;;;0.30;0.30;;;9.80;99.90;;;;;;6217104;23;20020;-76
2023/03/25 00:14:34;;;;;;;0.30;0.30;;;9.90;99.90;;;;;;6216371;23;20012;-76
2023/03/25 00:17:00;;;;;;;0.40;0.40;;;9.90;99.90;;;;;;6215835;23;20011;-76
2023/03/25 00:19:26;;;;;;;0.40;0.40;;;9.90;99.90;;;;;;6215967;23;20008;-76
2023/03/25 00:21:52;;;;;;;0.40;0.40;;;9.90;99.90;;;;;;6214349;23;20013;-76
2023/03/25 00:24:19;;;;;;;0.40;0.40;;;9.90;99.90;;;;;;6214420;23;20020;-77
2023/03/25 00:26:47;;;;;;;0.50;0.50;;;10.00;99.90;;;;;;6216309;23;20015;-76
2023/03/25 00:29:14;;;;;;;0.30;0.30;;;10.00;99.90;;;;;;6216652;23;20023;-77
2023/03/25 00:31:41;;;;;;;0.43;0.43;;;10.00;99.90;;;;;;6214747;23;20023;-76
2023/03/25 00:34:07;;;;;;;0.40;0.40;;;10.00;99.90;;;;;;6216223;23;20124;-77
2023/03/25 00:36:36;;;;;;;0.32;0.32;;;10.10;99.90;;;;;;6214466;23;20020;-77
2023/03/25 00:39:05;;;;;;;0.30;0.30;;;10.10;99.90;;;;;;6214396;23;20468;-77
2023/03/25 00:41:31;;;;;;;0.50;0.50;;;10.00;99.90;;;;;;6214261;23;20020;-77
2023/03/25 00:43:58;;;;;;;0.30;0.30;;;10.10;99.90;;;;;;6214270;23;20129;-77
2023/03/25 00:46:26;;;;;;;0.40;0.40;;;10.10;99.90;;;;;;6239589;23;20023;-77
2023/03/25 00:48:53;;;;;;;0.30;0.30;;;10.00;99.90;;;;;;6214254;23;20024;-77
2023/03/25 00:51:20;;;;;;;0.40;0.40;;;10.00;99.90;;;;;;6239513;23;20012;-77
2023/03/25 00:53:51;;;;;;;0.40;0.40;;;9.90;99.90;;;;;;6214218;23;20087;-76
2023/03/25 00:56:18;;;;;;;0.30;0.30;;;10.00;99.90;;;;;;6216243;23;20023;-76
2023/03/25 00:58:43;;;;;;;0.40;0.40;;;10.00;99.90;;;;;;6216198;23;20012;-77
2023/03/25 01:01:15;;;;;;;0.30;0.30;;;9.90;99.90;;;;;;6215959;23;20023;-76
2023/03/25 01:03:45;;;;;;;0.30;0.30;;;9.90;99.90;;;;;;6216103;23;20013;-76
2023/03/25 01:06:12;;;;;;;0.30;0.30;;;9.80;99.90;;;;;;6214137;23;20013;-76
2023/03/25 01:08:40;;;;;;;0.30;0.30;;;9.60;99.90;;;;;;6214073;23;20039;-76
2023/03/25 01:11:21;;;;;;;0.50;0.50;;;9.50;99.90;;;;;;6215986;23;20281;-76
2023/03/25 01:13:47;;;;;;;0.40;0.40;;;9.30;99.90;;;;;;6190451;23;20017;-76
2023/03/25 01:16:13;;;;;;;0.40;0.40;;;9.30;99.90;;;;;;6216879;23;20071;-76
2023/03/25 01:18:39;;;;;;;0.40;0.40;;;9.20;99.90;;;;;;6218353;23;20091;-76
2023/03/25 01:21:05;;;;;;;0.40;0.40;;;9.10;99.90;;;;;;6215981;23;20036;-77
2023/03/25 01:23:31;;;;;;;0.47;0.43;;;9.10;99.90;;;;;;6218037;23;20012;-76
2023/03/25 01:25:57;;;;;;;0.30;0.30;;;9.10;99.90;;;;;;6218830;23;20013;-76
2023/03/25 01:28:22;;;;;;;0.50;0.50;;;9.00;99.90;;;;;;6241452;23;20349;-76
2023/03/25 01:30:48;;;;;;;0.40;0.40;;;9.00;99.90;;;;;;6217948;23;20468;-76
2023/03/25 01:33:14;;;;;;;0.40;0.40;;;9.00;99.90;;;;;;6216347;23;20019;-77
2023/03/25 01:35:40;;;;;;;0.50;0.50;;;9.00;99.90;;;;;;6216103;23;20028;-75
2023/03/25 01:38:06;;;;;;;0.40;0.40;;;9.00;99.90;;;;;;6216068;23;20078;-76
2023/03/25 01:40:32;;;;;;;0.50;0.50;;;8.90;99.90;;;;;;6217713;23;20040;-75
2023/03/25 01:42:58;;;;;;;0.75;0.50;;;8.70;99.90;;;;;;6241682;23;20020;-75
2023/03/25 01:45:33;;;;;;;0.60;0.60;;;8.60;99.90;;;;;;6190912;23;20013;-75
2023/03/25 01:48:09;;;;;;;0.50;0.50;;;8.60;99.90;;;;;;6216278;23;20066;-75
2023/03/25 01:50:38;;;;;;;0.50;0.50;;;8.60;99.90;;;;;;6217768;23;20059;-75
2023/03/25 01:53:05;;;;;;;0.50;0.50;;;8.60;99.90;;;;;;6217443;23;20275;-75
2023/03/25 01:55:33;;;;;;;0.70;0.70;;;8.70;99.90;;;;;;6190685;23;20020;-75
2023/03/25 01:58:03;;;;;;;0.40;0.40;;;8.70;99.90;;;;;;6215786;23;20019;-75
2023/03/25 02:00:30;;;;;;;0.40;0.40;;;8.70;99.90;;;;;;6217590;23;20365;-76
2023/03/25 02:02:58;;;;;;;0.52;0.52;;;8.70;99.90;;;;;;6217286;23;20070;-75
2023/03/25 02:05:34;;;;;;;0.50;0.50;;;8.70;99.90;;;;;;6217654;23;20019;-75
2023/03/25 02:08:02;;;;;;;0.50;0.50;;;8.80;99.90;;;;;;6216821;23;20013;-75
2023/03/25 02:10:29;;;;;;;0.50;0.50;;;8.80;99.90;;;;;;6217027;23;20317;-75
2023/03/25 02:12:55;;;;;;;0.60;0.60;;;8.80;99.90;;;;;;6215727;23;20023;-76
2023/03/25 02:15:21;;;;;;;0.50;0.50;;;8.80;99.90;;;;;;6217297;23;20376;-75
2023/03/25 02:18:06;;;;;;;0.60;0.60;;;8.90;99.90;;;;;;6217277;23;20012;-76
2023/03/25 02:20:48;;;;;;;0.60;0.60;;;8.80;99.90;;;;;;6217060;23;20496;-76
2023/03/25 02:23:57;;;;;;;0.50;0.50;;;8.90;99.90;;;;;;6217594;23;20082;-76
2023/03/25 02:26:58;;;;;;;0.60;0.60;;;8.80;99.90;;;;;;6217893;23;20039;-75
2023/03/25 02:29:53;;;;;;;0.50;0.50;;;8.80;99.90;;;;;;6216047;23;20048;-76
2023/03/25 02:32:37;;;;;;;0.52;0.52;;;8.70;99.90;;;;;;6217081;23;20016;-76
2023/03/25 02:35:23;;;;;;;0.50;0.50;;;8.60;99.90;;;;;;6217456;23;20028;-75
2023/03/25 02:38:01;;;;;;;0.50;0.50;;;8.70;99.90;;;;;;6217421;23;20025;-76
2023/03/25 02:40:41;;;;;;;0.60;0.60;;;8.70;99.90;;;;;;6217259;23;20020;-75
2023/03/25 02:43:38;;;;;;;0.60;0.60;;;8.60;99.90;;;;;;6217329;23;20309;-76
2023/03/25 02:46:08;;;;;;;0.47;0.47;;;8.60;99.90;;;;;;6185259;23;20013;-75
2023/03/25 02:49:15;;;;;;;0.40;0.40;;;8.60;99.90;;;;;;6216917;23;20059;-76
2023/03/25 02:52:00;;;;;;;0.50;0.50;;;8.60;99.90;;;;;;6215717;23;20067;-76
2023/03/25 02:54:29;;;;;;;0.60;0.60;;;8.60;99.90;;;;;;6217276;23;20023;-76
2023/03/25 02:56:57;;;;;;;0.50;0.50;;;8.60;99.90;;;;;;6215436;23;20449;-77
2023/03/25 02:59:31;;;;;;;0.60;0.60;;;8.60;99.90;;;;;;6217218;23;20013;-76
2023/03/25 03:02:02;;;;;;;0.65;0.65;;;8.70;99.90;;;;;;6217200;23;20381;-76
2023/03/25 03:04:28;;;;;;;0.60;0.60;;;8.50;99.90;;;;;;6216812;23;20433;-76
2023/03/25 03:06:55;;;;;;;0.60;0.60;;;8.60;99.90;;;;;;6215148;23;20015;-76
2023/03/25 03:09:28;;;;;;;0.55;0.55;;;8.60;99.90;;;;;;6215098;23;20023;-76
2023/03/25 03:12:28;;;;;;;0.50;0.50;;;8.60;99.90;;;;;;6215177;23;20026;-76
2023/03/25 03:15:31;;;;;;;0.50;0.50;;;8.50;99.90;;;;;;6204503;23;20021;-76
2023/03/25 03:18:33;;;;;;;0.47;0.47;;;8.50;99.90;;;;;;6214547;23;20096;-76
2023/03/25 03:21:12;;;;;;;0.40;0.40;;;8.50;99.90;;;;;;6216905;23;20393;-76
2023/03/25 03:23:54;;;;;;;0.50;0.50;;;8.50;99.90;;;;;;6217014;23;20019;-76
2023/03/25 03:26:46;;;;;;;0.40;0.40;;;8.50;99.90;;;;;;6217341;23;20067;-76
2023/03/25 03:29:42;;;;;;;0.60;0.60;;;8.60;99.90;;;;;;6217008;23;20088;-76
2023/03/25 03:32:17;;;;;;;0.60;0.60;;;8.60;99.90;;;;;;6216929;23;20091;-76
2023/03/25 03:34:51;;;;;;;0.60;0.60;;;8.60;99.90;;;;;;6216847;23;20079;-75
2023/03/25 03:37:32;;;;;;;0.60;0.60;;;8.50;99.90;;;;;;6214912;23;20031;-76
2023/03/25 03:39:58;;;;;;;0.60;0.60;;;8.50;99.90;;;;;;6214882;23;20348;-76
2023/03/25 03:42:36;;;;;;;0.60;0.60;;;8.40;99.90;;;;;;6216459;23;20092;-76
2023/03/25 03:45:11;;;;;;;0.70;0.70;;;8.40;99.90;;;;;;6214917;23;20023;-76
2023/03/25 03:47:46;;;;;;;0.70;0.70;;;8.50;99.90;;;;;;6216787;23;20021;-76
2023/03/25 03:50:17;;;;;;;0.63;0.63;;;8.40;99.90;;;;;;6240154;23;20020;-76
2023/03/25 03:53:10;;;;;;;0.70;0.70;;;8.50;99.90;;;;;;6216131;23;20019;-76
2023/03/25 03:55:39;;;;;;;0.60;0.60;;;8.40;99.90;;;;;;6215210;23;20012;-76
2023/03/25 03:58:14;;;;;;;0.60;0.60;;;8.60;99.90;;;;;;6240043;23;20019;-76
2023/03/25 04:00:49;;;;;;;0.52;0.52;;;8.50;99.90;;;;;;6216554;23;20009;-77
2023/03/25 04:03:23;;;;;;;0.63;0.63;;;8.50;99.90;;;;;;6214798;23;20439;-77
2023/03/25 04:05:58;;;;;;;0.60;0.60;;;8.40;99.90;;;;;;6214668;23;20052;-76
2023/03/25 04:08:36;;;;;;;0.63;0.63;;;8.40;99.90;;;;;;6189643;23;20005;-77
2023/03/25 04:11:08;;;;;;;0.50;0.50;;;8.50;99.90;;;;;;6214712;23;20024;-77
2023/03/25 04:13:42;;;;;;;0.50;0.50;;;8.50;99.90;;;;;;6216227;23;20009;-77
2023/03/25 04:16:08;;;;;;;0.60;0.60;;;8.50;99.90;;;;;;6216228;23;20572;-76
2023/03/25 04:18:34;;;;;;;0.68;0.68;;;8.50;99.90;;;;;;6216515;23;20017;-76
2023/03/25 04:21:00;;;;;;;0.50;0.50;;;8.50;99.90;;;;;;6214354;23;20063;-76
2023/03/25 04:23:30;;;;;;;0.70;0.70;;;8.50;99.90;;;;;;6216096;23;20441;-77
2023/03/25 04:25:57;;;;;;;0.50;0.50;;;8.50;99.90;;;;;;6216155;23;20445;-76
2023/03/25 04:28:24;;;;;;;0.63;0.63;;;8.60;99.90;;;;;;6214454;23;20020;-76
2023/03/25 04:30:54;;;;;;;0.57;0.57;;;8.60;99.90;;;;;;6216292;23;20016;-76
2023/03/25 04:33:23;;;;;;;;;;;8.50;99.90;;;;;;6216642;23;20445;-76
2023/03/25 04:35:50;;;;;;;0.65;0.65;;;8.50;99.90;;;;;;6214250;23;19916;-76
2023/03/25 04:38:19;;;;;;;0.60;0.60;;;8.40;99.90;;;;;;6216026;23;20044;-77
2023/03/25 04:40:46;;;;;;;0.57;0.57;;;8.50;99.90;;;;;;6216097;23;20013;-77
2023/03/25 04:43:13;;;;;;;0.60;0.60;;;8.60;99.90;;;;;;6216219;23;20016;-76
2023/03/25 04:45:41;;;;;;;0.52;0.52;;;8.40;99.90;;;;;;6216208;23;20012;-77
2023/03/25 04:48:21;;;;;;;0.50;0.50;;;8.40;99.90;;;;;;6214085;23;20024;-77
2023/03/25 04:50:47;;;;;;;0.80;0.80;;;8.50;99.90;;;;;;6189364;23;20087;-77
2023/03/25 04:53:13;;;;;;;0.50;0.50;;;8.40;99.90;;;;;;6216206;23;20040;-76
2023/03/25 04:55:46;;;;;;;0.50;0.50;;;8.40;99.90;;;;;;6214275;23;20318;-76
2023/03/25 04:58:12;;;;;;;0.60;0.60;;;8.40;99.90;;;;;;6189338;23;20009;-77
2023/03/25 05:00:38;;;;;;;0.55;0.55;;;8.40;99.90;;;;;;6189043;23;20091;-76
2023/03/25 05:03:04;;;;;;;0.50;0.50;;;8.40;99.90;;;;;;6189209;23;20114;-77
2023/03/25 05:05:30;;;;;;;0.57;0.57;;;8.50;99.90;;;;;;6216097;23;20348;-77
2023/03/25 05:07:57;;;;;;;0.65;0.65;;;8.40;99.90;;;;;;6189272;23;20031;-77
2023/03/25 05:10:25;;;;;;;0.57;0.57;;;8.50;99.90;;;;;;6214141;23;20099;-77
2023/03/25 05:13:15;;;;;;;0.60;0.60;;;8.40;99.90;;;;;;6214214;23;20023;-77
2023/03/25 05:15:42;;;;;;;0.60;0.60;;;8.40;99.90;;;;;;6214305;23;20016;-77
2023/03/25 05:18:09;;;;;;;0.52;0.52;;;8.40;99.90;;;;;;6214606;23;20017;-77
2023/03/25 05:20:40;;;;;;;0.47;0.47;;;8.30;99.90;;;;;;6216021;23;20016;-77
2023/03/25 05:23:11;;;;;;;0.50;0.50;;;8.50;99.90;;;;;;6216162;23;20011;-77
2023/03/25 05:25:40;;;;;;;0.50;0.50;;;8.50;99.90;;;;;;6214174;23;20095;-77
2023/03/25 05:28:08;;;;;;;0.57;0.57;;;8.40;99.90;;;;;;6214196;23;20062;-77
2023/03/25 05:30:37;;;;;;;0.47;0.47;;;8.50;99.90;;;;;;6216044;23;20012;-77
2023/03/25 05:33:04;;;;;;;0.60;0.60;;;8.50;99.90;;;;;;6189143;23;20013;-76
2023/03/25 05:35:30;;;;;;;0.55;0.50;;;8.20;99.90;;;;;;6213902;23;20023;-73
2023/03/25 05:37:56;;;;;;;0.60;0.60;;;8.10;99.90;;;;;;6215948;23;20017;-73
2023/03/25 05:40:22;;;;;;;0.57;0.57;;;7.90;99.90;;;;;;6215829;23;20016;-73
2023/03/25 05:42:49;;;;;;;0.70;0.70;;;7.90;99.90;;;;;;6214034;23;20048;-73
2023/03/25 05:45:15;;;;;;;0.80;0.80;;;8.10;99.90;;;;;;6215920;23;20008;-73
2023/03/25 05:47:42;;;;;;;0.68;0.68;;;8.10;99.90;;;;;;6215450;23;20425;-73
2023/03/25 05:50:09;;;;;;;0.75;0.75;;;7.90;99.90;;;;;;6214021;23;20075;-73
2023/03/25 05:52:35;;;;;;;0.73;0.73;;;8.10;99.90;;;;;;6215858;23;20070;-73
2023/03/25 05:55:02;;;;;;;0.63;0.63;;;8.20;99.90;;;;;;6215829;23;20054;-73
2023/03/25 05:57:28;;;;;;;0.70;0.70;;;8.10;99.90;;;;;;6216845;23;20098;-73
2023/03/25 05:59:55;;;;;;;0.60;0.60;;;8.20;99.90;;;;;;6216239;23;20310;-73
2023/03/25 06:02:20;;;;;;;0.70;0.70;;;8.30;99.90;;;;;;6217678;23;20016;-74
2023/03/25 06:04:49;;;;;;;0.70;0.70;;;8.20;99.90;;;;;;6217317;23;20013;-73
2023/03/25 06:07:21;;;;;;;0.63;0.63;;;8.30;99.90;;;;;;6217735;23;20009;-73
2023/03/25 06:09:48;;;;;;;0.60;0.60;;;8.30;99.90;;;;;;6217729;23;20009;-74
2023/03/25 06:12:18;;;;;;;0.70;0.70;;;8.20;99.90;;;;;;6217281;23;20012;-74
2023/03/25 06:14:45;;;;;;;0.52;0.52;;;8.20;99.90;;;;;;6217670;23;20016;-74
2023/03/25 06:17:23;;;;;;;0.50;0.50;;;8.20;99.90;;;;;;6215749;23;20080;-74
2023/03/25 06:19:52;;;;;;;0.60;0.60;;;8.20;99.90;;;;;;6215798;23;20087;-74
2023/03/25 06:22:21;;;;;;;0.60;0.60;;;8.20;99.90;;;;;;6217605;23;20376;-74
2023/03/25 06:24:47;;;;;;;0.60;0.60;;;8.20;99.90;;;;;;6217515;23;20009;-74
2023/03/25 06:27:18;;;;;;;0.80;0.80;;;8.20;99.90;;;;;;6215688;23;20012;-74
2023/03/25 06:29:44;;;;;;;0.70;0.70;;;8.30;99.90;;;;;;6217480;23;20004;-74
2023/03/25 06:32:14;;;;;;;0.60;0.60;;;8.40;99.90;;;;;;6217465;23;20302;-74
2023/03/25 06:34:41;;;;;;;0.70;0.70;;;8.30;99.90;;;;;;6217469;23;20337;-74
2023/03/25 06:37:08;;;;;;;0.50;0.50;;;8.20;99.90;;;;;;6215361;23;20062;-74
2023/03/25 06:39:36;;;;;;;0.70;0.70;;;8.30;99.90;;;;;;6217345;23;20016;-74
2023/03/25 06:42:04;;;;;;;0.60;0.60;;;8.10;99.90;;;;;;6215338;23;20012;-74
2023/03/25 06:44:30;;;;;;;0.65;0.65;;;8.30;99.90;;;;;;6217006;23;20433;-74
2023/03/25 06:46:55;;;;;;;0.90;0.90;;;8.20;99.90;;;;;;6217202;23;20008;-74
2023/03/25 06:49:21;;;;;;;0.70;0.70;;;8.30;99.90;;;;;;6240531;23;20464;-74
2023/03/25 06:51:47;;;;;;;0.80;0.80;;;8.10;99.90;;;;;;6240492;23;20027;-75
2023/03/25 06:54:13;;;;;;;0.60;0.60;;;8.10;99.90;;;;;;6215426;23;20016;-75
2023/03/25 06:56:39;;;;;;;0.60;0.60;;;8.30;99.90;;;;;;6215382;23;20019;-76
2023/03/25 06:59:05;;;;;;;0.77;0.77;;;8.30;99.90;;;;;;6215331;23;20048;-76
2023/03/25 07:01:31;;;;;;;0.60;0.60;;;8.20;99.90;;;;;;6216707;23;20008;-74
2023/03/25 07:03:56;;;;;;;0.80;0.80;;;8.30;99.90;;;;;;6217216;23;20032;-75
2023/03/25 07:06:23;;;;;;;0.73;0.73;;;8.30;99.90;;;;;;6216741;23;20020;-74
2023/03/25 07:08:49;;;;;;;0.70;0.70;;;8.40;99.90;;;;;;6216769;23;20040;-74
2023/03/25 07:11:18;;;;;;;0.68;0.68;;;8.30;99.90;;;;;;6214982;23;20012;-75
2023/03/25 07:13:44;;;;;;;0.60;0.60;;;8.50;99.90;;;;;;6216658;23;20437;-74
2023/03/25 07:16:10;;;;;;;0.60;0.60;;;8.50;99.90;;;;;;6216914;23;20028;-76
2023/03/25 07:18:36;;;;;;;0.70;0.70;;;8.50;99.90;;;;;;6217034;23;20013;-78
2023/03/25 07:21:02;;;;;;;0.60;0.60;;;8.50;99.90;;;;;;6217014;23;20085;-76
2023/03/25 07:23:28;;;;;;;0.68;0.68;;;8.50;99.90;;;;;;6217580;23;20021;-76
2023/03/25 07:25:55;;;;;;;0.57;0.57;;;8.40;99.90;;;;;;6215128;23;20051;-77
2023/03/25 07:28:22;;;;;;;0.93;0.93;;;8.50;99.90;;;;;;6216962;23;20019;-77
2023/03/25 07:30:47;;;;;;;0.50;0.50;;;8.50;99.90;;;;;;6216554;23;20425;-76
2023/03/25 07:33:13;;;;;;;0.60;0.60;;;8.50;99.90;;;;;;6216967;23;20047;-75
2023/03/25 07:35:39;;;;;;;0.70;0.70;;;8.50;99.90;;;;;;6215502;23;20012;-75
2023/03/25 07:38:05;;;;;;;0.70;0.70;;;8.60;99.90;;;;;;6216884;23;20341;-76
2023/03/25 07:40:31;;;;;;;0.80;0.80;;;8.60;99.90;;;;;;6216709;23;20019;-73
2023/03/25 07:42:56;;;;;;;0.80;0.80;;;8.80;99.90;;;;;;6216825;23;20009;-74
2023/03/25 07:45:22;;;;;;;0.60;0.60;;;8.90;99.90;;;;;;6216710;23;20437;-74
2023/03/25 07:47:49;;;;;;;0.70;0.70;;;9.00;99.90;;;;;;6216708;23;20013;-73
2023/03/25 07:50:19;;;;;;;0.65;0.65;;;8.90;99.90;;;;;;6214852;23;20084;-75
2023/03/25 07:52:45;;;;;;;0.70;0.70;;;8.80;99.90;;;;;;6240214;23;20051;-76
2023/03/25 07:55:12;;;;;;;0.70;0.70;;;8.70;99.90;;;;;;6216647;23;20008;-73
2023/03/25 07:57:39;;;;;;;1.13;0.70;;;8.70;99.90;;;;;;6217175;23;20016;-72
2023/03/25 08:00:06;;;;;;;0.60;0.60;;;8.50;99.90;;;;;;6214619;23;20333;-73
2023/03/25 08:02:32;;;;;;;0.70;0.70;;;8.00;99.90;;;;;;6214900;23;20016;-75
2023/03/25 08:04:58;;;;;;;0.60;0.60;;;7.90;99.90;;;;;;6215583;23;20016;-75
2023/03/25 08:07:24;;;;;;;0.68;0.68;;;8.00;99.90;;;;;;6216540;23;20453;-73
2023/03/25 08:09:50;;;;;;;0.68;0.68;;;8.00;99.90;;;;;;6216505;23;20013;-72
2023/03/25 08:12:15;;;;;;;0.60;0.60;;;8.10;99.90;;;;;;6217428;23;20016;-73
2023/03/25 08:14:41;;;;;;;0.80;0.80;;;8.10;99.90;;;;;;6216420;23;20012;-73
2023/03/25 08:17:07;;;;;;;0.80;0.80;;;8.20;99.90;;;;;;6216400;23;20012;-72
2023/03/25 08:19:32;;;;;;;0.70;0.70;;;8.30;99.90;;;;;;6216455;23;20071;-76
2023/03/25 08:21:58;;;;;;;0.70;0.70;;;8.30;99.90;;;;;;6214342;23;20346;-77
2023/03/25 08:24:25;;;;;;;0.65;0.65;;;8.40;99.90;;;;;;6216301;23;20483;-76
2023/03/25 08:26:53;;;;;;;0.98;0.88;;;8.30;99.90;;;;;;6214578;23;20020;-76
2023/03/25 08:29:19;;;;;;;0.70;0.70;;;8.30;99.90;;;;;;6214457;23;20013;-75
2023/03/25 08:31:45;;;;;;;0.70;0.70;;;8.20;99.90;;;;;;6216063;23;20031;-74
2023/03/25 08:34:12;;;;;;;0.70;0.70;;;8.20;99.90;;;;;;6216398;23;20047;-73
2023/03/25 08:36:38;;;;;;;0.63;0.63;;;8.20;99.90;;;;;;6216085;23;20384;-73
2023/03/25 08:39:08;;;;;;;0.70;0.70;;;8.00;99.90;;;;;;6216335;23;20009;-73
2023/03/25 08:41:34;;;;;;;;;;;8.10;99.90;;;;;;6216753;23;20013;-73
2023/03/25 08:44:00;;;;;;;0.80;0.80;;;8.00;99.90;;;;;;6216275;23;20026;-73
2023/03/25 08:46:25;;;;;;;0.60;0.60;;;8.10;99.90;;;;;;6216250;23;20067;-73
2023/03/25 08:48:52;;;;;;;0.80;0.80;;;8.30;99.90;;;;;;6216178;23;20316;-73
2023/03/25 08:51:18;;;;;;;0.80;0.80;;;8.30;99.90;;;;;;6216209;23;20017;-75
2023/03/25 08:53:43;;;;;;;0.80;0.80;;;8.30;99.90;;;;;;6216151;23;20051;-76
2023/03/25 08:56:10;;;;;;;0.70;0.70;;;8.60;99.90;;;;;;6215785;23;20059;-76
2023/03/25 08:58:35;;;;;;;0.70;0.70;;;8.60;99.90;;;;;;6216243;23;20019;-75
2023/03/25 09:01:01;;;;;;;0.75;0.75;;;8.60;99.90;;;;;;6216072;23;20048;-76
2023/03/25 09:03:27;;;;;;;0.80;0.80;;;8.70;99.90;;;;;;6216282;23;20071;-75
2023/03/25 09:05:53;;;;;;;0.73;0.73;;;8.60;99.90;;;;;;6216099;23;20009;-75
2023/03/25 09:08:19;;;;;;;0.80;0.80;;;8.70;99.90;;;;;;6216703;23;20012;-77
2023/03/25 09:10:45;;;;;;;0.70;0.70;;;8.90;99.90;;;;;;6239502;23;20085;-77
2023/03/25 09:13:10;;;;;;;0.73;0.73;;;8.90;99.90;;;;;;6239485;23;20013;-76
2023/03/25 09:15:36;;;;;;;0.70;0.70;;;8.80;99.90;;;;;;6239488;23;20154;-75
2023/03/25 09:18:02;;;;;;;0.85;0.85;;;8.90;99.90;;;;;;6215988;23;20008;-73
2023/03/25 09:20:28;;;;;;;0.70;0.70;;;9.10;99.90;;;;;;6214071;23;20028;-73
2023/03/25 09:22:53;;;;;;;0.60;0.60;;;9.20;99.90;;;;;;6214077;23;20067;-76
2023/03/25 09:25:19;;;;;;;0.70;0.70;;;9.10;99.90;;;;;;6214610;23;20044;-81
2023/03/25 09:27:45;;;;;;;0.63;0.63;;;9.10;99.90;;;;;;6216085;23;20028;-80
2023/03/25 09:30:11;;;;;;;0.60;0.60;;;9.20;99.90;;;;;;6214119;23;20103;-80
2023/03/25 09:32:37;;;;;;;0.60;0.60;;;9.30;99.90;;;;;;6216000;23;20119;-80
2023/03/25 09:35:03;;;;;;;0.75;0.75;;;9.30;99.90;;;;;;6217433;23;20012;-80
2023/03/25 09:37:29;;;;;;;0.70;0.70;;;9.30;99.90;;;;;;6217498;23;20013;-80
2023/03/25 09:39:54;;;;;;;0.65;0.65;;;9.50;99.90;;;;;;6241327;23;20012;-80
2023/03/25 09:43:08;;;;;;;0.70;0.70;;;9.50;99.90;;;;;;6191261;23;20066;-82
2023/03/25 09:45:35;;;;;;;0.70;0.70;;;9.70;99.90;;;;;;6165894;23;20022;-81
2023/03/25 09:48:30;;;;;;;0.70;0.70;;;9.80;99.90;;;;;;6191050;23;20016;-80
2023/03/25 09:51:03;;;;;;;0.60;0.60;;;9.70;99.90;;;;;;6210691;23;20070;-78
2023/03/25 09:53:50;;;;;;;0.60;0.60;;;9.80;99.90;;;;;;6216260;23;20040;-71
2023/03/25 09:56:20;;;;;;;0.60;0.60;;;9.60;99.90;;;;;;6218045;23;20084;-78
2023/03/25 09:58:48;;;;;;;0.60;0.60;;;9.40;99.90;;;;;;6216124;23;20013;-82
2023/03/25 10:01:25;;;;;;;1.55;0.70;;;9.10;99.90;;;;;;6217812;23;20329;-78
2023/03/25 10:04:09;;;;;;;0.60;0.60;;;8.90;99.90;;;;;;6217662;23;20017;-80
2023/03/25 10:07:07;;;;;;;0.60;0.60;;;8.70;99.90;;;;;;6215916;23;20021;-78
2023/03/25 10:09:32;;;;;;;0.70;0.70;;;8.70;99.90;;;;;;6125746;23;20100;-76
2023/03/25 10:12:04;;;;;;;0.50;0.50;;;8.80;99.90;;;;;;6101460;23;20045;-75
2023/03/25 10:14:52;;;;;;;0.60;0.60;;;9.00;99.90;;;;;;6101213;23;20018;-75
2023/03/25 10:17:38;;;;;;;0.70;0.70;;;9.00;99.90;;;;;;6125490;23;20524;-73
2023/03/25 10:20:16;;;;;;;0.70;0.70;;;9.10;99.90;;;;;;6125431;23;20056;-74
2023/03/25 10:23:19;;;;;;;0.70;0.70;;;9.20;99.90;;;;;;6100922;23;20391;-74
2023/03/25 10:25:48;;;;;;;0.52;0.52;;;9.10;99.90;;;;;;6100863;23;20431;-73
2023/03/25 10:28:21;;;;;;;0.70;0.70;;;9.30;99.90;;;;;;6125665;23;20014;-73
2023/03/25 10:30:51;;;;;;;0.70;0.70;;;9.30;99.90;;;;;;6125408;23;20014;-73
2023/03/25 10:33:42;;;;;;;0.60;0.60;;;9.40;99.90;;;;;;6126288;23;20022;-73
2023/03/25 10:36:16;;;;;;;0.70;0.70;;;9.50;99.90;;;;;;6125108;23;20018;-73
2023/03/25 10:38:44;;;;;;;0.50;0.50;;;9.70;99.90;;;;;;6100849;23;20030;-73
2023/03/25 10:41:29;;;;;;;0.50;0.50;;;9.70;99.90;;;;;;6125171;23;20014;-73
2023/03/25 10:43:55;;;;;;;0.60;0.60;;;9.60;99.90;;;;;;6100729;23;20170;-73
2023/03/25 10:46:37;;;;;;;0.40;0.40;;;9.60;99.90;;;;;;6169746;23;20040;-73
2023/03/25 10:49:03;;;;;;;0.50;0.50;;;9.50;99.90;;;;;;6217313;23;20009;-73
2023/03/25 10:51:32;;;;;;;0.60;0.60;;;9.50;99.90;;;;;;6217166;23;20015;-73
2023/03/25 10:53:58;;;;;;;0.60;0.60;;;9.50;99.90;;;;;;6215757;23;20095;-67
2023/03/25 10:56:25;;;;;;;0.60;0.60;;;9.60;99.90;;;;;;6216863;23;20520;-76
2023/03/25 10:58:54;;;;;;;0.55;0.55;;;9.60;99.90;;;;;;6240582;23;20073;-76
2023/03/25 11:01:27;;;;;;;0.60;0.60;;;9.70;99.90;;;;;;6217022;23;20066;-77
2023/03/25 11:03:53;;;;;;;0.60;0.60;;;9.90;99.90;;;;;;6217302;23;20027;-73
2023/03/25 11:06:28;;;;;;;0.60;0.60;;;10.10;99.90;;;;;;6217259;23;20080;-74
2023/03/25 11:09:06;;;;;;;0.60;0.60;;;10.30;99.90;;;;;;6217227;23;20011;-76
2023/03/25 11:11:33;;;;;;;0.60;0.60;;;10.40;99.90;;;;;;6216755;23;20341;-75
2023/03/25 11:14:00;;;;;;;0.55;0.55;;;10.50;99.90;;;;;;6215643;23;20024;-75
2023/03/25 11:16:29;;;;;;;0.60;0.60;;;10.50;99.90;;;;;;6217062;23;20009;-75
2023/03/25 11:18:54;;;;;;;0.57;0.57;;;10.50;99.90;;;;;;6215230;23;20413;-75
2023/03/25 11:21:20;;;;;;;0.60;0.60;;;10.40;99.90;;;;;;6216864;23;20009;-75
2023/03/25 11:23:49;;;;;;;0.52;0.52;;;10.40;99.90;;;;;;6215024;23;20008;-74
2023/03/25 11:26:17;;;;;;;0.50;0.50;;;10.40;99.90;;;;;;6217001;23;20008;-74
2023/03/25 11:28:45;;;;;;;0.68;0.68;;;10.30;99.90;;;;;;6215098;23;20012;-76
2023/03/25 11:31:20;;;;;;;0.52;0.52;;;10.30;99.90;;;;;;6190025;23;20016;-76
2023/03/25 11:34:14;;;;;;;0.60;0.60;;;10.10;99.90;;;;;;6240497;23;20044;-76
2023/03/25 11:36:51;;;;;;;0.50;0.50;;;10.20;99.90;;;;;;6214901;23;20067;-76
2023/03/25 11:39:33;;;;;;;0.70;0.70;;;10.20;99.90;;;;;;6215032;23;20015;-73
2023/03/25 11:42:13;;;;;;;0.60;0.60;;;10.20;99.90;;;;;;6216812;23;20012;-74
2023/03/25 11:44:39;;;;;;;;;;;10.20;99.90;;;;;;6217281;23;20008;-75
2023/03/25 11:47:08;;;;;;;0.60;0.60;;;10.30;99.90;;;;;;6216466;23;19991;-75
2023/03/25 11:49:40;;;;;;;0.50;0.50;;;10.50;99.90;;;;;;6216461;23;20084;-75
2023/03/25 11:52:13;;;;;;;0.50;0.50;;;10.70;99.90;;;;;;6189846;23;20017;-75
2023/03/25 11:54:40;;;;;;;0.50;0.50;;;10.80;99.90;;;;;;6214887;23;20016;-75
2023/03/25 11:57:15;;;;;;;0.70;0.70;;;11.10;99.90;;;;;;6216674;23;20020;-75
2023/03/25 11:59:48;;;;;;;0.70;0.70;;;11.50;99.90;;;;;;6214798;23;20060;-75
2023/03/25 12:02:36;;;;;;;0.60;0.60;;;11.50;99.90;;;;;;6189624;23;20020;-75
2023/03/25 12:05:12;;;;;;;0.50;0.50;;;11.70;99.90;;;;;;6216257;23;20140;-74
2023/03/25 12:07:46;;;;;;;0.60;0.60;;;11.50;99.90;;;;;;6216641;23;20012;-77
2023/03/25 12:10:30;;;;;;;0.60;0.52;;;11.40;99.90;;;;;;6214611;23;20349;-78
2023/03/25 12:13:20;;;;;;;0.70;0.70;;;11.10;99.90;;;;;;6215661;23;20013;-78
2023/03/25 12:16:07;;;;;;;0.88;0.88;;;11.10;99.90;;;;;;6239954;23;20016;-79
2023/03/25 12:19:21;;;;;;;0.60;0.60;;;11.40;99.90;;;;;;6189874;23;20044;-80
2023/03/25 12:22:24;;;;;;;0.50;0.50;;;11.50;99.90;;;;;;6124134;23;20037;-80
2023/03/25 12:25:17;;;;;;;0.50;0.50;;;11.50;99.90;;;;;;6124232;23;20017;-78
2023/03/25 12:28:05;;;;;;;0.45;0.45;;;11.30;99.90;;;;;;6075899;23;20097;-78
2023/03/25 12:30:52;;;;;;;0.60;0.60;;;11.50;99.90;;;;;;6099877;23;20014;-77
2023/03/25 12:33:43;;;;;;;0.60;0.60;;;11.70;99.90;;;;;;6100034;23;20320;-77
2023/03/25 12:36:15;;;;;;;0.60;0.60;;;11.90;99.90;;;;;;6099424;23;20041;-77
2023/03/25 12:39:03;;;;;;;0.80;0.80;;;12.00;99.90;;;;;;6099943;23;20062;-78
2023/03/25 12:41:57;;;;;;;0.60;0.60;;;12.00;99.90;;;;;;6099663;23;20025;-77
2023/03/25 12:44:37;;;;;;;0.73;0.73;;;12.20;99.90;;;;;;6124141;23;20016;-78
2023/03/25 12:47:15;;;;;;;0.50;0.50;;;12.40;99.90;;;;;;6099703;23;20100;-70
2023/03/25 12:50:05;;;;;;;0.70;0.70;;;12.30;99.90;;;;;;6075654;23;20071;-77
2023/03/25 12:52:40;;;;;;;;;;;12.30;99.90;;;;;;6100258;23;20022;-76
2023/03/25 12:55:29;;;;;;;0.60;0.60;;;12.60;99.90;;;;;;6124118;23;19924;-83
2023/03/25 12:58:26;;;;;;;0.70;0.70;;;12.40;99.90;;;;;;6159738;23;20013;-75
2023/03/25 13:01:09;;;;;;;0.70;0.70;;;12.70;99.90;;;;;;6216135;23;20016;-76
2023/03/25 13:03:38;;;;;;;0.70;0.70;;;12.30;99.90;;;;;;6189232;23;20139;-75
2023/03/25 13:06:25;;;;;;;0.70;0.70;;;12.20;99.90;;;;;;6214645;23;20008;-74
2023/03/25 13:09:04;;;;;;;0.60;0.60;;;12.00;99.90;;;;;;6217634;23;20012;-73
2023/03/25 13:11:49;;;;;;;0.70;0.70;;;11.90;99.90;;;;;;6217631;23;20090;-73
2023/03/25 13:14:36;;;;;;;0.70;0.70;;;11.60;99.90;;;;;;6219540;23;20008;-74
2023/03/25 13:17:10;;;;;;;0.60;0.60;;;11.70;99.90;;;;;;6219186;23;20013;-74
2023/03/25 13:19:43;;;;;;;0.60;0.60;;;12.00;99.90;;;;;;6217692;23;20429;-74
2023/03/25 13:22:23;;;;;;;1.00;0.77;;;12.50;99.90;;;;;;6217478;23;20090;-74